Corrigan, TX

11:57 PM CDT on September 16, 2014 (GMT -0500)
Mangham Regional | Change Station
CLOSE
Current Station
Airport
Location: Nacogdoches,
Elevation: 354 ft
Nearby Weather Stations

Elev 354 ft 31.58 °N, 94.71 °W | Updated 22 minutes ago

Mostly Cloudy
Mostly Cloudy
73 °F
Feels Like 73 °F
N
0
Wind Variable Wind from North

Today
High -- | Low -- °F
--% Chance of Precip.
Yesterday
High -- | Low -- °F
Precip. -- in
7:04 AM 7:23 PM
Last Quarter, 39% visible
Pressure 30.03 in
Visibility 10.0 miles
Clouds Few 11000 ft
Dew Point 68 °F
Humidity 83%
Rainfall 0.00 in
Snow Depth Not available.
UV 0 out of 12
Pollen 8.70 out of 12
Air Quality Not available.
Flu Activity Not available.
METAR KOCH 170435Z AUTO 00000KT 10SM FEW110 23/20 A3003 RMK AO1

More Conditions Fewer Conditions

Pressure 30.03 in
Visibility 10.0 miles
Clouds Few 11000 ft
Dew Point 68 °F
Humidity 83%
Rainfall 0.00 in
Snow Depth Not available.
UV 0 out of 12
Pollen 8.70 out of 12
Air Quality Not available.
Flu Activity Not available.
METAR KOCH 170435Z AUTO 00000KT 10SM FEW110 23/20 A3003 RMK AO1

More Conditions Fewer Conditions

10-Day Weather Forecast

Almanac

Astronomy

Sep. 16, 2014 Rise Set
Actual Time 7:04 AM CDT 7:23 PM CDT
Civil Twilight 6:39 AM CDT 7:47 PM CDT
Nautical Twilight 6:11 AM CDT 8:15 PM CDT
Astronomical Twilight 5:42 AM CDT 8:44 PM CDT
Moon 12:31 AM CDT (9/16) 2:31 PM CDT (9/16)
Length of Visible Light 13h 07m
Length of Day
12h 19m
Tomorrow will be 1m 53s shorter.
Last Quarter, 39% of the Moon is Illuminated
Sep 17
Last Quarter
Sep 24
New
Oct 1
First Quarter
Oct 8
Full
Oct 15
Last Quarter

Yesterday's Extremes

State Highs State Lows

Community

WunderPhotos

Upload Photos

1,753,966 photos uploaded!

Nearby

Snow Depth

Station Depth Elevation
No new snow has been reported.

Earthquake Activity

City Distance Mag. Time & Date
No recent earthquake activity has been reported nearby.
Minimum magnitude displayed is 2.5.

Coastal Water Temperatures

Place Temperature
No Stations Reporting

Nearby Weather Stations